KFAR/FAR METAR and TAF weather

Enter ICAO airport designator
Station Type Date Time Source
KFAR METAR 2019/08/19 01:53 UTC NOAA

KFAR 190153Z 22007KT 10SM CLR 16/09 A2984 RMK AO2 SLP108 T01610094


Station Type Date Time Source
KFAR Decoded METAR 2019/08/19 01:53 UTC NOAA

Station name not available
Aug 18, 2019 - 09:53 PM EDT / 2019.08.19 0153 UTC
Wind: from the SW (220 degrees) at 8 MPH (7 KT):0
Visibility: 10 mile(s):0
Sky conditions: clear
Temperature: 61.0 F (16.1 C)
Dew Point: 48.9 F (9.4 C)
Relative Humidity: 64%
Pressure (altimeter): 29.84 in. Hg (1010 hPa)
ob: KFAR 190153Z 22007KT 10SM CLR 16/09 A2984 RMK AO2 SLP108 T01610094
cycle: 2

Station Type Date Time Source
KFAR TAF 2019/08/18 18:39 UTC NOAA

TAF KFAR 181736Z 1818/1918 29012KT P6SM FEW060
FM190000 23008KT P6SM SKC
FM190500 18007KT P6SM SKC

Example: see airport list